Climatologie pour Saint-Brevin les Pins
Jour • Résumé pour mai 31, 2017 Système :  Métrique    Anglais   Mixte
« - 1 jour
+ 1 jour »
Jour Semaine Mois Année Personnalisé
  Maximum : Minimum : Moyenne :
Température sous abri : 25.3 °C 11.6 °C 18.4 °C
Point de rosée : 16.3 °C 11.1 °C 14 °C
Humidité : 98 % 50 % 78 %
Vitesse du vent : 16.1 km/h 0.0 km/h 2.9 km/h
Rafale : 20.9 km/h - -
Direction :- - ESE
Pression : 1022.6 hPa 1019.5 hPa -
Précipitations : 0.0 mm    
Historical Graphs
 
 
Tableau de données pour mai 31, 2017
Heure Tempé Pt rosée Pression Vent Vitesse Rafale Humidité Taux pluie (/hr) Soleil
00:00 14.3 °C 13.7 °C 1021.6 hPa NNW 3.2 km/h 8.0 km/h 96 % 0.0 mm 0 W/m2
00:10 14.4 °C 13.8 °C 1021.6 hPa WNW 1.6 km/h 9.7 km/h 96 % 0.0 mm 0 W/m2
00:15 14.5 °C 13.9 °C 1021.6 hPa WNW 1.6 km/h 9.7 km/h 96 % 0.0 mm 0 W/m2
00:20 14.4 °C 13.8 °C 1021.6 hPa Calm   6.4 km/h 96 % 0.0 mm 0 W/m2
00:25 14.3 °C 13.7 °C 1021.6 hPa Calm   4.8 km/h 96 % 0.0 mm 0 W/m2
00:30 14.3 °C 13.6 °C 1021.6 hPa Calm   3.2 km/h 96 % 0.0 mm 0 W/m2
00:35 14.2 °C 13.6 °C 1021.6 hPa Calm   3.2 km/h 96 % 0.0 mm 0 W/m2
00:40 14.2 °C 13.5 °C 1021.6 hPa Calm   8.0 km/h 96 % 0.0 mm 0 W/m2
00:45 14.1 °C 13.4 °C 1021.6 hPa Calm   8.0 km/h 96 % 0.0 mm 0 W/m2
00:50 14.0 °C 13.4 °C 1021.6 hPa Calm   8.0 km/h 96 % 0.0 mm 0 W/m2
00:55 14.1 °C 13.4 °C 1021.6 hPa Calm   8.0 km/h 96 % 0.0 mm 0 W/m2
01:00 14.1 °C 13.4 °C 1021.6 hPa Calm   6.4 km/h 96 % 0.0 mm 0 W/m2
01:05 14.0 °C 13.4 °C 1021.6 hPa Calm   6.4 km/h 96 % 0.0 mm 0 W/m2
01:10 13.9 °C 13.3 °C 1021.6 hPa NNW 3.2 km/h 6.4 km/h 96 % 0.0 mm 0 W/m2
01:15 14.1 °C 13.6 °C 1021.6 hPa Calm   6.4 km/h 97 % 0.0 mm 0 W/m2
01:20 13.9 °C 13.3 °C 1021.6 hPa Calm   6.4 km/h 96 % 0.0 mm 0 W/m2
01:25 14.0 °C 13.5 °C 1021.6 hPa Calm   3.2 km/h 97 % 0.0 mm 0 W/m2
01:30 13.8 °C 13.2 °C 1021.6 hPa Calm   3.2 km/h 96 % 0.0 mm 0 W/m2
01:35 13.8 °C 13.2 °C 1021.6 hPa Calm   1.6 km/h 96 % 0.0 mm 0 W/m2
01:40 13.7 °C 13.1 °C 1021.6 hPa Calm   1.6 km/h 96 % 0.0 mm 0 W/m2
01:45 13.6 °C 13.0 °C 1021.6 hPa Calm     96 % 0.0 mm 0 W/m2
01:50 13.4 °C 13.0 °C 1021.6 hPa Calm     97 % 0.0 mm 0 W/m2
01:55 13.4 °C 12.9 °C 1021.6 hPa Calm     97 % 0.0 mm 0 W/m2
02:00 13.3 °C 12.7 °C 1021.6 hPa Calm     96 % 0.0 mm 0 W/m2
02:05 13.3 °C 12.8 °C 1021.6 hPa Calm     97 % 0.0 mm 0 W/m2
02:10 13.2 °C 12.7 °C 1021.6 hPa Calm     97 % 0.0 mm 0 W/m2
02:15 13.2 °C 12.7 °C 1021.6 hPa Calm     97 % 0.0 mm 0 W/m2
02:25 12.8 °C 12.3 °C 1021.6 hPa Calm     97 % 0.0 mm 0 W/m2
02:30 12.7 °C 12.2 °C 1021.6 hPa Calm     97 % 0.0 mm 0 W/m2
02:35 12.6 °C 12.1 °C 1021.6 hPa Calm     97 % 0.0 mm 0 W/m2
02:40 12.4 °C 12.0 °C 1021.6 hPa Calm     97 % 0.0 mm 0 W/m2
02:45 12.4 °C 12.0 °C 1021.6 hPa Calm     97 % 0.0 mm 0 W/m2
02:50 12.3 °C 11.8 °C 1021.6 hPa Calm     97 % 0.0 mm 0 W/m2
02:55 12.3 °C 11.8 °C 1021.6 hPa Calm     97 % 0.0 mm 0 W/m2
03:00 12.3 °C 11.8 °C 1021.6 hPa Calm     97 % 0.0 mm 0 W/m2
03:05 12.2 °C 11.8 °C 1021.6 hPa Calm     97 % 0.0 mm 0 W/m2
03:10 12.2 °C 11.8 °C 1021.6 hPa Calm     97 % 0.0 mm 0 W/m2
03:15 12.2 °C 11.7 °C 1021.6 hPa Calm     97 % 0.0 mm 0 W/m2
03:20 12.3 °C 12.0 °C 1021.6 hPa Calm     98 % 0.0 mm 0 W/m2
03:25 12.2 °C 11.8 °C 1021.6 hPa Calm     97 % 0.0 mm 0 W/m2
03:30 12.2 °C 11.7 °C 1021.6 hPa Calm     97 % 0.0 mm 0 W/m2
03:35 12.0 °C 11.5 °C 1021.6 hPa Calm     97 % 0.0 mm 0 W/m2
03:40 12.0 °C 11.5 °C 1021.6 hPa Calm     97 % 0.0 mm 0 W/m2
03:45 11.8 °C 11.3 °C 1021.6 hPa Calm     97 % 0.0 mm 0 W/m2
03:50 11.7 °C 11.3 °C 1021.6 hPa Calm     97 % 0.0 mm 0 W/m2
03:55 11.7 °C 11.2 °C 1021.6 hPa Calm     97 % 0.0 mm 0 W/m2
04:00 11.7 °C 11.2 °C 1021.6 hPa Calm     97 % 0.0 mm 0 W/m2
04:05 11.7 °C 11.2 °C 1021.6 hPa Calm     97 % 0.0 mm 0 W/m2
04:10 11.6 °C 11.1 °C 1021.6 hPa Calm     97 % 0.0 mm 0 W/m2
04:15 11.6 °C 11.3 °C 1021.6 hPa Calm     98 % 0.0 mm 0 W/m2
04:20 11.7 °C 11.4 °C 1021.6 hPa Calm     98 % 0.0 mm 0 W/m2
04:25 11.6 °C 11.3 °C 1021.6 hPa Calm     98 % 0.0 mm 0 W/m2
04:30 11.7 °C 11.4 °C 1021.6 hPa Calm     98 % 0.0 mm 0 W/m2
04:35 11.6 °C 11.3 °C 1021.6 hPa Calm     98 % 0.0 mm 0 W/m2
04:40 11.6 °C 11.3 °C 1021.6 hPa Calm     98 % 0.0 mm 0 W/m2
04:45 11.7 °C 11.4 °C 1021.6 hPa Calm     98 % 0.0 mm 0 W/m2
04:50 11.8 °C 11.5 °C 1021.6 hPa Calm     98 % 0.0 mm 0 W/m2
04:55 11.9 °C 11.6 °C 1021.6 hPa Calm     98 % 0.0 mm 0 W/m2
05:00 12.1 °C 11.8 °C 1021.6 hPa Calm     98 % 0.0 mm 0 W/m2
05:05 12.2 °C 11.9 °C 1021.6 hPa Calm     98 % 0.0 mm 0 W/m2
05:10 12.4 °C 12.1 °C 1021.6 hPa Calm     98 % 0.0 mm 0 W/m2
05:15 12.5 °C 12.2 °C 1021.6 hPa Calm     98 % 0.0 mm 0 W/m2
05:20 12.6 °C 12.3 °C 1021.6 hPa Calm     98 % 0.0 mm 0 W/m2
05:25 12.7 °C 12.4 °C 1021.6 hPa Calm     98 % 0.0 mm 0 W/m2
05:30 12.8 °C 12.5 °C 1021.6 hPa Calm     98 % 0.0 mm 0 W/m2
05:35 12.9 °C 12.6 °C 1021.6 hPa Calm     98 % 0.0 mm 0 W/m2
05:40 12.9 °C 12.6 °C 1021.6 hPa Calm     98 % 0.0 mm 0 W/m2
05:45 13.1 °C 12.8 °C 1021.6 hPa Calm     98 % 0.0 mm 0 W/m2
05:50 13.2 °C 12.9 °C 1021.6 hPa Calm     98 % 0.0 mm 0 W/m2
05:55 13.3 °C 13.0 °C 1021.9 hPa Calm     98 % 0.0 mm 0 W/m2
06:00 13.3 °C 13.0 °C 1021.6 hPa Calm     98 % 0.0 mm 0 W/m2
06:05 13.3 °C 13.0 °C 1021.6 hPa Calm     98 % 0.0 mm 0 W/m2
06:10 13.3 °C 13.0 °C 1021.6 hPa Calm     98 % 0.0 mm 0 W/m2
06:15 13.4 °C 13.1 °C 1021.6 hPa Calm     98 % 0.0 mm 0 W/m2
06:20 13.5 °C 13.2 °C 1021.6 hPa Calm     98 % 0.0 mm 0 W/m2
06:25 13.6 °C 13.3 °C 1021.6 hPa Calm     98 % 0.0 mm 0 W/m2
06:30 13.8 °C 13.5 °C 1021.6 hPa Calm     98 % 0.0 mm 5 W/m2
06:35 13.9 °C 13.6 °C 1021.6 hPa Calm     98 % 0.0 mm 7 W/m2
06:40 13.9 °C 13.6 °C 1021.6 hPa Calm     98 % 0.0 mm 9 W/m2
06:45 13.9 °C 13.6 °C 1021.9 hPa Calm     98 % 0.0 mm 11 W/m2
06:50 14.0 °C 13.7 °C 1021.9 hPa Calm     98 % 0.0 mm 12 W/m2
06:55 14.1 °C 13.7 °C 1021.9 hPa Calm     98 % 0.0 mm 16 W/m2
07:00 14.1 °C 13.8 °C 1021.9 hPa Calm     98 % 0.0 mm 19 W/m2
07:05 14.2 °C 13.9 °C 1021.9 hPa Calm     98 % 0.0 mm 23 W/m2
07:10 14.2 °C 13.9 °C 1021.9 hPa Calm     98 % 0.0 mm 26 W/m2
07:15 14.3 °C 14.0 °C 1021.9 hPa Calm     98 % 0.0 mm 30 W/m2
07:20 14.2 °C 13.9 °C 1021.9 hPa Calm     98 % 0.0 mm 35 W/m2
07:25 14.3 °C 14.0 °C 1021.9 hPa Calm     98 % 0.0 mm 39 W/m2
07:30 14.3 °C 14.0 °C 1021.9 hPa Calm     98 % 0.0 mm 42 W/m2
07:35 14.4 °C 14.1 °C 1021.9 hPa Calm     98 % 0.0 mm 53 W/m2
07:40 14.5 °C 14.2 °C 1022.2 hPa Calm     98 % 0.0 mm 54 W/m2
07:45 14.6 °C 14.2 °C 1022.2 hPa Calm     98 % 0.0 mm 60 W/m2
07:50 14.7 °C 14.4 °C 1022.2 hPa Calm     98 % 0.0 mm 62 W/m2
07:55 14.8 °C 14.5 °C 1022.2 hPa Calm     98 % 0.0 mm 67 W/m2
08:00 14.8 °C 14.4 °C 1022.2 hPa Calm     97 % 0.0 mm 77 W/m2
08:05 14.9 °C 14.6 °C 1022.2 hPa Calm     98 % 0.0 mm 84 W/m2
08:10 15.1 °C 14.6 °C 1022.2 hPa Calm     97 % 0.0 mm 100 W/m2
08:15 15.3 °C 14.8 °C 1022.2 hPa Calm     97 % 0.0 mm 109 W/m2
08:20 15.4 °C 14.9 °C 1022.2 hPa Calm     97 % 0.0 mm 118 W/m2
08:25 15.6 °C 14.9 °C 1022.2 hPa Calm     96 % 0.0 mm 120 W/m2
08:30 15.7 °C 15.1 °C 1022.2 hPa Calm     96 % 0.0 mm 130 W/m2
08:35 15.8 °C 15.0 °C 1022.2 hPa Calm   4.8 km/h 95 % 0.0 mm 144 W/m2
08:40 16.0 °C 15.0 °C 1022.2 hPa ESE 3.2 km/h 9.7 km/h 94 % 0.0 mm 178 W/m2
08:45 16.2 °C 15.0 °C 1022.6 hPa East 1.6 km/h 9.7 km/h 93 % 0.0 mm 234 W/m2
08:50 16.4 °C 15.1 °C 1022.6 hPa SE 4.8 km/h 11.3 km/h 92 % 0.0 mm 225 W/m2
08:55 16.7 °C 15.2 °C 1022.6 hPa ENE 3.2 km/h 11.3 km/h 91 % 0.0 mm 241 W/m2
09:00 16.9 °C 15.2 °C 1022.2 hPa East 8.0 km/h 11.3 km/h 90 % 0.0 mm 264 W/m2
09:05 17.1 °C 15.2 °C 1022.2 hPa ENE 4.8 km/h 11.3 km/h 89 % 0.0 mm 301 W/m2
09:10 17.3 °C 15.3 °C 1022.2 hPa ENE 1.6 km/h 11.3 km/h 88 % 0.0 mm 323 W/m2
09:15 17.7 °C 15.5 °C 1022.2 hPa SE 6.4 km/h 11.3 km/h 87 % 0.0 mm 450 W/m2
09:25 18.3 °C 15.2 °C 1022.2 hPa ESE 4.8 km/h 12.9 km/h 82 % 0.0 mm 513 W/m2
09:30 18.6 °C 15.3 °C 1022.2 hPa East 9.7 km/h 12.9 km/h 81 % 0.0 mm 520 W/m2
09:35 19.0 °C 15.5 °C 1022.2 hPa East 8.0 km/h 12.9 km/h 80 % 0.0 mm 520 W/m2
09:40 19.2 °C 15.4 °C 1022.2 hPa ENE 3.2 km/h 12.9 km/h 79 % 0.0 mm 520 W/m2
09:45 19.4 °C 15.7 °C 1022.2 hPa East 3.2 km/h 12.9 km/h 79 % 0.0 mm 554 W/m2
09:50 19.7 °C 15.5 °C 1022.2 hPa SE 6.4 km/h 11.3 km/h 77 % 0.0 mm 555 W/m2
09:55 19.7 °C 15.1 °C 1022.2 hPa ENE 14.5 km/h 17.7 km/h 75 % 0.0 mm 561 W/m2
10:00 19.7 °C 14.7 °C 1022.2 hPa SE 6.4 km/h 17.7 km/h 73 % 0.0 mm 568 W/m2
10:05 19.8 °C 15.1 °C 1022.2 hPa East 4.8 km/h 16.1 km/h 74 % 0.0 mm 577 W/m2
10:10 19.9 °C 14.7 °C 1022.2 hPa ESE 12.9 km/h 17.7 km/h 72 % 0.0 mm 592 W/m2
10:15 20.1 °C 15.1 °C 1022.2 hPa East 11.3 km/h 17.7 km/h 73 % 0.0 mm 603 W/m2
10:20 20.2 °C 14.7 °C 1022.2 hPa ESE 4.8 km/h 17.7 km/h 71 % 0.0 mm 610 W/m2
10:25 20.6 °C 15.8 °C 1022.2 hPa NE 4.8 km/h 17.7 km/h 74 % 0.0 mm 626 W/m2
10:30 20.8 °C 15.1 °C 1022.2 hPa NNE 3.2 km/h 16.1 km/h 70 % 0.0 mm 640 W/m2
10:40 20.7 °C 14.8 °C 1022.2 hPa ENE 12.9 km/h 14.5 km/h 69 % 0.0 mm 661 W/m2
10:45 20.7 °C 14.8 °C 1022.2 hPa Calm   14.5 km/h 69 % 0.0 mm 671 W/m2
10:50 21.1 °C 14.9 °C 1022.2 hPa East 4.8 km/h 14.5 km/h 68 % 0.0 mm 686 W/m2
10:55 21.3 °C 15.1 °C 1022.2 hPa NE 11.3 km/h 16.1 km/h 68 % 0.0 mm 694 W/m2
11:00 21.1 °C 14.5 °C 1022.2 hPa East 4.8 km/h 16.1 km/h 66 % 0.0 mm 708 W/m2
11:05 21.6 °C 14.5 °C 1022.2 hPa East 4.8 km/h 14.5 km/h 64 % 0.0 mm 719 W/m2
11:10 21.4 °C 14.5 °C 1022.2 hPa East 11.3 km/h 17.7 km/h 65 % 0.0 mm 729 W/m2
11:15 21.6 °C 15.2 °C 1022.2 hPa East 9.7 km/h 17.7 km/h 67 % 0.0 mm 738 W/m2
11:20 21.5 °C 13.7 °C 1021.9 hPa ESE 8.0 km/h 16.1 km/h 61 % 0.0 mm 749 W/m2
11:25 21.7 °C 14.6 °C 1021.9 hPa East 11.3 km/h 16.1 km/h 64 % 0.0 mm 759 W/m2
11:30 22.2 °C 15.6 °C 1021.9 hPa SE 3.2 km/h 19.3 km/h 66 % 0.0 mm 772 W/m2
11:35 21.9 °C 14.3 °C 1021.9 hPa ENE 8.0 km/h 19.3 km/h 62 % 0.0 mm 777 W/m2
11:40 22.0 °C 13.9 °C 1021.9 hPa NE 3.2 km/h 14.5 km/h 60 % 0.0 mm 789 W/m2
11:45 22.0 °C 13.6 °C 1021.9 hPa East 4.8 km/h 17.7 km/h 59 % 0.0 mm 796 W/m2
11:50 22.3 °C 15.6 °C 1021.9 hPa East 9.7 km/h 17.7 km/h 66 % 0.0 mm 803 W/m2
11:55 22.4 °C 14.5 °C 1021.9 hPa ESE 12.9 km/h 20.9 km/h 61 % 0.0 mm 816 W/m2
12:00 22.5 °C 15.3 °C 1021.9 hPa SE 8.0 km/h 20.9 km/h 64 % 0.0 mm 819 W/m2
12:05 22.8 °C 14.1 °C 1021.9 hPa ENE 11.3 km/h 20.9 km/h 58 % 0.0 mm 830 W/m2
12:10 22.4 °C 14.0 °C 1021.9 hPa East 1.6 km/h 20.9 km/h 59 % 0.0 mm 835 W/m2
12:15 22.7 °C 14.2 °C 1021.9 hPa SE 8.0 km/h 16.1 km/h 59 % 0.0 mm 846 W/m2
12:20 22.8 °C 14.7 °C 1021.9 hPa NE 8.0 km/h 16.1 km/h 60 % 0.0 mm 860 W/m2
12:25 22.8 °C 14.1 °C 1021.9 hPa ENE 11.3 km/h 16.1 km/h 58 % 0.0 mm 879 W/m2
12:30 22.8 °C 14.3 °C 1021.9 hPa ENE 4.8 km/h 16.1 km/h 59 % 0.0 mm 872 W/m2
12:35 22.8 °C 13.6 °C 1021.9 hPa SE 4.8 km/h 11.3 km/h 56 % 0.0 mm 877 W/m2
12:40 23.2 °C 14.8 °C 1021.9 hPa NE 8.0 km/h 14.5 km/h 59 % 0.0 mm 879 W/m2
12:45 23.4 °C 14.4 °C 1021.9 hPa ENE 6.4 km/h 16.1 km/h 57 % 0.0 mm 905 W/m2
12:50 23.2 °C 13.7 °C 1021.6 hPa SE 8.0 km/h 16.1 km/h 55 % 0.0 mm 919 W/m2
12:55 23.4 °C 14.4 °C 1021.6 hPa ENE 6.4 km/h 16.1 km/h 57 % 0.0 mm 949 W/m2
13:00 23.7 °C 14.4 °C 1021.6 hPa Calm   17.7 km/h 56 % 0.0 mm 951 W/m2
13:05 23.6 °C 14.3 °C 1021.6 hPa ENE 8.0 km/h 17.7 km/h 56 % 0.0 mm 951 W/m2
13:10 23.5 °C 13.4 °C 1021.6 hPa ESE 3.2 km/h 11.3 km/h 53 % 0.0 mm 967 W/m2
13:15 23.6 °C 12.6 °C 1021.6 hPa East 9.7 km/h 14.5 km/h 50 % 0.0 mm 995 W/m2
13:20 23.5 °C 12.5 °C 1021.6 hPa NE 4.8 km/h 14.5 km/h 50 % 0.0 mm 1055 W/m2
13:25 23.6 °C 13.1 °C 1021.6 hPa NE 4.8 km/h 16.1 km/h 52 % 0.0 mm 475 W/m2
13:30 22.7 °C 12.3 °C 1021.6 hPa North 4.8 km/h 16.1 km/h 52 % 0.0 mm 287 W/m2
13:35 22.9 °C 13.7 °C 1021.6 hPa Calm   14.5 km/h 56 % 0.0 mm 1065 W/m2
13:40 23.9 °C 13.8 °C 1021.6 hPa ESE 8.0 km/h 14.5 km/h 53 % 0.0 mm 1102 W/m2
13:45 24.2 °C 13.4 °C 1021.6 hPa NE 9.7 km/h 16.1 km/h 51 % 0.0 mm 1109 W/m2
13:50 23.5 °C 14.5 °C 1021.6 hPa East 3.2 km/h 16.1 km/h 57 % 0.0 mm 264 W/m2
13:55 23.4 °C 12.7 °C 1021.6 hPa East 11.3 km/h 14.5 km/h 51 % 0.0 mm 1023 W/m2
14:05 23.9 °C 13.5 °C 1021.2 hPa East 16.1 km/h 16.1 km/h 52 % 0.0 mm 979 W/m2
14:10 23.7 °C 14.1 °C 1021.2 hPa East 8.0 km/h 17.7 km/h 55 % 0.0 mm 988 W/m2
14:15 24.0 °C 14.4 °C 1021.2 hPa East 4.8 km/h 17.7 km/h 55 % 0.0 mm 977 W/m2
14:20 24.2 °C 14.9 °C 1021.2 hPa ENE 11.3 km/h 17.7 km/h 56 % 0.0 mm 1049 W/m2
14:25 24.6 °C 15.5 °C 1021.2 hPa East 3.2 km/h 14.5 km/h 57 % 0.0 mm 1074 W/m2
14:30 24.8 °C 15.5 °C 1021.2 hPa North 3.2 km/h 14.5 km/h 56 % 0.0 mm 1060 W/m2
14:35 24.8 °C 15.1 °C 1021.2 hPa ESE 6.4 km/h 14.5 km/h 55 % 0.0 mm 1123 W/m2
14:40 24.4 °C 15.4 °C 1021.2 hPa East 11.3 km/h 16.1 km/h 57 % 0.0 mm 1164 W/m2
14:45 23.2 °C 14.2 °C 1021.2 hPa NE 8.0 km/h 16.1 km/h 57 % 0.0 mm 294 W/m2
14:50 23.4 °C 14.1 °C 1020.9 hPa NE 12.9 km/h 14.5 km/h 56 % 0.0 mm 1032 W/m2
14:55 24.4 °C 14.8 °C 1020.9 hPa Calm   14.5 km/h 55 % 0.0 mm 993 W/m2
15:05 24.1 °C 13.9 °C 1020.9 hPa SE 6.4 km/h 16.1 km/h 53 % 0.0 mm 979 W/m2
15:10 24.1 °C 15.0 °C 1020.9 hPa ESE 6.4 km/h 14.5 km/h 57 % 0.0 mm 766 W/m2
15:15 24.3 °C 14.7 °C 1020.9 hPa East 4.8 km/h 14.5 km/h 55 % 0.0 mm 990 W/m2
15:20 24.6 °C 14.7 °C 1020.5 hPa SE 4.8 km/h 12.9 km/h 54 % 0.0 mm 1021 W/m2
15:25 24.1 °C 13.9 °C 1020.5 hPa SSE 4.8 km/h 12.9 km/h 53 % 0.0 mm 986 W/m2
15:30 24.4 °C 13.9 °C 1020.5 hPa East 4.8 km/h 11.3 km/h 52 % 0.0 mm 997 W/m2
15:35 24.3 °C 14.7 °C 1020.5 hPa Calm   11.3 km/h 55 % 0.0 mm 932 W/m2
15:45 23.2 °C 14.8 °C 1020.5 hPa NE 3.2 km/h 16.1 km/h 59 % 0.0 mm 156 W/m2
15:50 23.8 °C 14.7 °C 1020.5 hPa ENE 8.0 km/h 14.5 km/h 57 % 0.0 mm 958 W/m2
15:55 23.3 °C 14.6 °C 1020.5 hPa NE 6.4 km/h 11.3 km/h 58 % 0.0 mm 283 W/m2
16:00 24.2 °C 15.4 °C 1020.5 hPa ENE 8.0 km/h 11.3 km/h 58 % 0.0 mm 900 W/m2
16:05 24.8 °C 15.5 °C 1020.2 hPa ENE 8.0 km/h 14.5 km/h 56 % 0.0 mm 846 W/m2
16:15 25.0 °C 15.9 °C 1020.2 hPa ENE 1.6 km/h 12.9 km/h 57 % 0.0 mm 930 W/m2
16:20 25.3 °C 16.2 °C 1020.2 hPa East 14.5 km/h 14.5 km/h 57 % 0.0 mm 911 W/m2
16:25 25.3 °C 15.0 °C 1020.2 hPa NE 4.8 km/h 14.5 km/h 53 % 0.0 mm 867 W/m2
16:30 24.2 °C 14.0 °C 1020.2 hPa East 4.8 km/h 16.1 km/h 53 % 0.0 mm 232 W/m2
16:35 24.2 °C 14.8 °C 1020.2 hPa ENE 11.3 km/h 20.9 km/h 56 % 0.0 mm 262 W/m2
16:40 24.2 °C 14.6 °C 1020.2 hPa ESE 4.8 km/h 20.9 km/h 55 % 0.0 mm 185 W/m2
16:45 23.6 °C 14.3 °C 1020.2 hPa NE 3.2 km/h 16.1 km/h 56 % 0.0 mm 798 W/m2
16:50 24.2 °C 15.4 °C 1020.2 hPa ESE 8.0 km/h 14.5 km/h 58 % 0.0 mm 770 W/m2
16:55 24.2 °C 14.8 °C 1020.2 hPa ENE 3.2 km/h 12.9 km/h 56 % 0.0 mm 756 W/m2
17:00 24.3 °C 15.8 °C 1020.2 hPa ENE 6.4 km/h 11.3 km/h 59 % 0.0 mm 782 W/m2
17:05 23.9 °C 14.1 °C 1020.2 hPa Calm   8.0 km/h 54 % 0.0 mm 174 W/m2
17:10 23.4 °C 15.0 °C 1020.2 hPa NE 8.0 km/h 12.9 km/h 59 % 0.0 mm 246 W/m2
17:15 24.1 °C 15.5 °C 1020.2 hPa ENE 14.5 km/h 14.5 km/h 59 % 0.0 mm 766 W/m2
17:20 24.8 °C 14.8 °C 1020.2 hPa East 6.4 km/h 14.5 km/h 54 % 0.0 mm 752 W/m2
17:25 24.6 °C 14.3 °C 1020.2 hPa Calm   14.5 km/h 53 % 0.0 mm 689 W/m2
17:30 24.2 °C 15.7 °C 1019.9 hPa East 1.6 km/h 12.9 km/h 59 % 0.0 mm 747 W/m2
17:35 24.8 °C 14.5 °C 1019.9 hPa NE 1.6 km/h 9.7 km/h 53 % 0.0 mm 782 W/m2
17:40 24.3 °C 14.4 °C 1019.9 hPa ENE 8.0 km/h 12.9 km/h 54 % 0.0 mm 250 W/m2
17:45 23.7 °C 14.4 °C 1019.9 hPa NNE 1.6 km/h 14.5 km/h 56 % 0.0 mm 216 W/m2
17:50 23.5 °C 14.8 °C 1019.9 hPa East 3.2 km/h 14.5 km/h 58 % 0.0 mm 221 W/m2
17:55 23.6 °C 14.3 °C 1019.9 hPa East 4.8 km/h 12.9 km/h 56 % 0.0 mm 178 W/m2
18:00 23.3 °C 14.3 °C 1019.9 hPa East 3.2 km/h 12.9 km/h 57 % 0.0 mm 171 W/m2
18:05 23.2 °C 14.8 °C 1019.9 hPa Calm   11.3 km/h 59 % 0.0 mm 174 W/m2
18:10 23.2 °C 14.5 °C 1019.9 hPa ESE 3.2 km/h 11.3 km/h 58 % 0.0 mm 209 W/m2
18:15 23.3 °C 14.5 °C 1019.9 hPa ESE 4.8 km/h 8.0 km/h 58 % 0.0 mm 218 W/m2
18:20 23.2 °C 15.0 °C 1019.9 hPa SW 3.2 km/h 8.0 km/h 60 % 0.0 mm 190 W/m2
18:25 22.8 °C 14.6 °C 1019.9 hPa West 9.7 km/h 9.7 km/h 60 % 0.0 mm 171 W/m2
18:30 22.4 °C 15.5 °C 1019.9 hPa West 4.8 km/h 9.7 km/h 65 % 0.0 mm 160 W/m2
18:35 22.4 °C 15.0 °C 1019.9 hPa WNW 8.0 km/h 11.3 km/h 63 % 0.0 mm 144 W/m2
18:40 22.3 °C 14.9 °C 1019.9 hPa West 4.8 km/h 14.5 km/h 63 % 0.0 mm 135 W/m2
18:45 22.8 °C 14.6 °C 1019.5 hPa Calm   14.5 km/h 60 % 0.0 mm 497 W/m2
18:50 23.4 °C 15.4 °C 1019.5 hPa SSW 8.0 km/h 8.0 km/h 61 % 0.0 mm 461 W/m2
18:55 23.7 °C 15.2 °C 1019.5 hPa WSW 3.2 km/h 9.7 km/h 59 % 0.0 mm 457 W/m2
19:00 24.0 °C 16.0 °C 1019.5 hPa NNW 4.8 km/h 9.7 km/h 61 % 0.0 mm 424 W/m2
19:05 24.0 °C 16.0 °C 1019.5 hPa Calm   8.0 km/h 61 % 0.0 mm 388 W/m2
19:10 23.8 °C 14.8 °C 1019.5 hPa SSE 3.2 km/h 8.0 km/h 57 % 0.0 mm 373 W/m2
19:15 23.9 °C 14.3 °C 1019.9 hPa Calm   6.4 km/h 55 % 0.0 mm 353 W/m2
19:20 23.8 °C 14.8 °C 1019.9 hPa NE 6.4 km/h 6.4 km/h 57 % 0.0 mm 336 W/m2
19:25 23.7 °C 15.5 °C 1019.9 hPa NNE 3.2 km/h 8.0 km/h 60 % 0.0 mm 79 W/m2
19:30 23.3 °C 14.8 °C 1019.9 hPa NNE 8.0 km/h 8.0 km/h 59 % 0.0 mm 292 W/m2
19:40 23.1 °C 14.9 °C 1019.9 hPa NNE 6.4 km/h 9.7 km/h 60 % 0.0 mm 262 W/m2
19:45 22.7 °C 14.3 °C 1019.9 hPa NE 3.2 km/h 11.3 km/h 59 % 0.0 mm 44 W/m2
19:50 22.2 °C 14.5 °C 1019.9 hPa Calm   11.3 km/h 62 % 0.0 mm 42 W/m2
19:55 21.9 °C 15.2 °C 1019.9 hPa NNE 3.2 km/h 8.0 km/h 66 % 0.0 mm 185 W/m2
20:00 21.8 °C 15.2 °C 1019.9 hPa NNE 6.4 km/h 8.0 km/h 66 % 0.0 mm 178 W/m2
20:05 21.8 °C 16.1 °C 1019.9 hPa NNE 1.6 km/h 8.0 km/h 70 % 0.0 mm 162 W/m2
20:10 21.8 °C 16.3 °C 1019.9 hPa Calm   8.0 km/h 71 % 0.0 mm 160 W/m2
20:15 21.7 °C 15.3 °C 1019.9 hPa NNE 1.6 km/h 8.0 km/h 67 % 0.0 mm 148 W/m2
20:25 21.9 °C 15.5 °C 1019.9 hPa NNE 1.6 km/h 8.0 km/h 67 % 0.0 mm 111 W/m2
20:30 21.8 °C 15.0 °C 1019.9 hPa Calm   8.0 km/h 65 % 0.0 mm 91 W/m2
20:35 21.6 °C 15.2 °C 1019.9 hPa North 1.6 km/h 8.0 km/h 67 % 0.0 mm 76 W/m2
20:40 21.5 °C 15.1 °C 1019.9 hPa North 4.8 km/h 8.0 km/h 67 % 0.0 mm 33 W/m2
20:45 21.3 °C 15.6 °C 1019.9 hPa Calm   8.0 km/h 70 % 0.0 mm 33 W/m2
20:50 20.9 °C 15.7 °C 1019.9 hPa North 4.8 km/h 8.0 km/h 72 % 0.0 mm 30 W/m2
20:55 20.6 °C 15.6 °C 1019.9 hPa Calm   8.0 km/h 73 % 0.0 mm 26 W/m2
21:00 20.3 °C 15.3 °C 1019.9 hPa North 3.2 km/h 8.0 km/h 73 % 0.0 mm 25 W/m2
21:05 20.2 °C 15.4 °C 1019.9 hPa Calm   9.7 km/h 74 % 0.0 mm 25 W/m2
21:10 19.8 °C 15.3 °C 1019.9 hPa WNW 3.2 km/h 9.7 km/h 75 % 0.0 mm 21 W/m2
21:15 19.8 °C 15.3 °C 1020.2 hPa NNW 4.8 km/h 9.7 km/h 75 % 0.0 mm 19 W/m2
21:20 19.6 °C 15.3 °C 1020.2 hPa North 3.2 km/h 9.7 km/h 76 % 0.0 mm 16 W/m2
21:25 19.3 °C 15.2 °C 1020.2 hPa Calm   8.0 km/h 77 % 0.0 mm 14 W/m2
21:30 19.1 °C 15.0 °C 1019.9 hPa Calm   8.0 km/h 77 % 0.0 mm 12 W/m2
21:35 18.7 °C 15.0 °C 1019.9 hPa NNW 1.6 km/h 8.0 km/h 79 % 0.0 mm 11 W/m2
21:40 18.4 °C 14.7 °C 1019.9 hPa Calm   6.4 km/h 79 % 0.0 mm 9 W/m2
21:45 18.2 °C 14.7 °C 1019.9 hPa Calm   6.4 km/h 80 % 0.0 mm 7 W/m2
21:50 18.0 °C 14.5 °C 1019.9 hPa Calm   6.4 km/h 80 % 0.0 mm 5 W/m2
22:00 17.5 °C 14.2 °C 1019.9 hPa Calm   1.6 km/h 81 % 0.0 mm 0 W/m2
22:05 17.4 °C 14.1 °C 1019.9 hPa Calm   1.6 km/h 81 % 0.0 mm 0 W/m2
22:10 17.2 °C 14.1 °C 1019.9 hPa Calm   3.2 km/h 82 % 0.0 mm 0 W/m2
22:15 17.0 °C 14.1 °C 1020.2 hPa Calm   3.2 km/h 83 % 0.0 mm 0 W/m2
22:20 16.8 °C 13.9 °C 1020.2 hPa Calm   1.6 km/h 83 % 0.0 mm 0 W/m2
22:25 16.7 °C 14.0 °C 1020.2 hPa Calm   3.2 km/h 84 % 0.0 mm 0 W/m2
22:30 16.6 °C 14.1 °C 1020.2 hPa Calm   3.2 km/h 85 % 0.0 mm 0 W/m2
22:35 16.6 °C 14.0 °C 1020.2 hPa Calm   1.6 km/h 85 % 0.0 mm 0 W/m2
22:40 16.3 °C 14.0 °C 1020.5 hPa Calm   1.6 km/h 86 % 0.0 mm 0 W/m2
22:45 16.1 °C 13.8 °C 1020.2 hPa Calm   4.8 km/h 86 % 0.0 mm 0 W/m2
22:50 16.1 °C 13.9 °C 1020.5 hPa Calm   4.8 km/h 87 % 0.0 mm 0 W/m2
22:55 15.9 °C 13.8 °C 1020.5 hPa Calm   3.2 km/h 87 % 0.0 mm 0 W/m2
23:05 15.7 °C 13.7 °C 1020.5 hPa Calm     88 % 0.0 mm 0 W/m2
23:10 15.7 °C 13.7 °C 1020.5 hPa Calm     88 % 0.0 mm 0 W/m2
23:15 15.6 °C 13.6 °C 1020.5 hPa Calm     88 % 0.0 mm 0 W/m2
23:20 15.5 °C 13.5 °C 1020.5 hPa Calm     88 % 0.0 mm 0 W/m2
23:25 15.4 °C 13.6 °C 1020.5 hPa Calm     89 % 0.0 mm 0 W/m2
23:30 15.3 °C 13.5 °C 1020.5 hPa Calm     89 % 0.0 mm 0 W/m2
23:35 15.2 °C 13.5 °C 1020.5 hPa Calm     90 % 0.0 mm 0 W/m2
23:40 15.1 °C 13.4 °C 1020.5 hPa Calm     90 % 0.0 mm 0 W/m2
23:45 14.8 °C 13.4 °C 1020.5 hPa Calm     91 % 0.0 mm 0 W/m2
23:50 14.7 °C 13.2 °C 1020.5 hPa Calm     91 % 0.0 mm 0 W/m2
23:55 14.6 °C 13.3 °C 1020.5 hPa Calm     92 % 0.0 mm 0 W/m2
Avec l'autorisation de Weather Underground - 1.75 mb